Aérodrome :
LOGIN :

S'inscrire | Disclaimer

   EN    FR    IT 

 










Légende :    VFR   VFR Marginal   IFR   IFR Intensif   IFR Très Intensif
Visi : 
Plafond : 
>= 8 km
>= 3000ft
5 à 8 km
1000 à 3000 ft
1500m à 5 km
500 à 1000 ft
800 à 1500m
200 à 500 ft
< 800m
< 200 ft
Symboles :   Orages  Brouillard  Fortes neiges  Fortes précipitations  Vent > 20 kt
SIGMETs :   Divers  Orages  Givrage  Turbulence  Onde Orograph.  Cendres Volcan.







- Altitude de l'aérodrome : 72 ft
- Code IATA : UDE


EHVK - Volkel Airbase

DERNIER METAR :
  • 230655Z AUTO 23012KT 9999 FEW020 BKN026 OVC160 09/07 Q1025 BLU 24012KT 9999 FEW017 SCT020 BKN024

METARs EXPIRÉS :
  • 230625Z AUTO 24010KT 220V280 9999 FEW018 BKN021 OVC024 09/07 Q1026 WHT 24012KT 9999 FEW017 SCT020 BKN024
  • 230555Z AUTO 24012KT 9999 FEW018 OVC023 09/06 Q1026 WHT 24012KT 9999 FEW017 SCT020 BKN024
  • 230525Z AUTO 23010KT 9999 FEW018 OVC022 08/06 Q1026 WHT
  • 230459Z AUTO 24011KT 9999 BKN023 OVC026 08/06 Q1026 WHT
  • 230455Z AUTO 23011KT 9999 SCT023 BKN026 OVC160 08/06 Q1026 WHT
  • 230425Z AUTO 23011KT 9999 OVC170 07/05 Q1027 BLU

TAF TAF EHVK
Valide du 23 à 05h jusqu'au 23 à 17h UTC


230429Z 2305/2317 25012KT 9999 SCT020 BKN025
PROB40 2305/2312 FEW012 SCT015 BKN020
TEMPO 2309/2317 30015G25KT
Pas de NOTAMs connus pour ce terrain.



MET'MAP, la Météo Aéronautique d'un coup d'oeil ! - Copyright ORBIFLY Décembre 2007 - Disclaimer

ORBIFLY MET'MAP TEAM :

Programmation & Développement : Alexandra Zaïnal
Conception & Développement : Baudouin d'Aumeries
Co-Programmation & Développement : Marc-Olivier Méhu
Soutien technique & logistique : Manuel Goepfert

Contact : metmap@orbifly.com




SOURCES & CREDITS :

   NOAA